Time;durP1;ratioP1;P1;durP2;ratioP2;P2;SDS_P1;SDS_P2;PMS_P1;PMS_P2;Temp;Humidity;BMP_temperature;BMP_pressure;BME280_temperature;BME280_humidity;BME280_pressure;Samples;Min_cycle;Max_cycle;Signal;HPM_P1;HPM_P2
2022/04/12 00:04:28;;;;;;;42.40;25.50;;;;;;;1.86;75.65;100216.52;214861;1276;141952;-61
2022/04/12 00:09:30;;;;;;;57.70;27.40;;;;;;;1.83;75.94;100220.38;214328;1276;140224;-64
2022/04/12 00:14:33;;;;;;;43.60;23.90;;;;;;;1.84;75.64;100221.65;216029;1276;140145;-64
2022/04/12 00:19:36;;;;;;;45.70;25.70;;;;;;;1.69;75.21;100213.09;216131;1276;139885;-66
2022/04/12 00:24:40;;;;;;;39.00;22.50;;;;;;;1.57;75.63;100210.91;214604;1276;141274;-63
2022/04/12 00:29:43;;;;;;;48.70;24.50;;;;;;;1.44;75.38;100210.09;215724;1276;140400;-64
2022/04/12 00:34:47;;;;;;;49.20;25.40;;;;;;;1.40;75.39;100208.05;215851;1276;140988;-65
2022/04/12 00:39:49;;;;;;;42.40;23.40;;;;;;;1.35;75.58;100209.79;214560;1276;143475;-63
2022/04/12 00:44:52;;;;;;;50.50;25.80;;;;;;;1.32;75.82;100208.73;213836;1276;141973;-62
2022/04/12 00:49:56;;;;;;;47.70;25.80;;;;;;;1.29;75.87;100209.91;213307;1277;140670;-62
2022/04/12 00:54:59;;;;;;;43.00;25.00;;;;;;;1.18;76.04;100214.36;213471;1276;141877;-63
2022/04/12 01:00:07;;;;;;;46.30;25.60;;;;;;;1.10;75.53;100215.52;213929;1276;141808;-62
2022/04/12 01:05:11;;;;;;;44.10;27.40;;;;;;;1.06;75.73;100214.68;213395;1276;141422;-62
2022/04/12 01:10:15;;;;;;;39.10;25.70;;;;;;;1.07;76.26;100214.35;213360;1276;141717;-62
2022/04/12 01:15:22;;;;;;;44.10;28.70;;;;;;;1.03;75.93;100218.11;213730;1276;141056;-61
2022/04/12 01:20:29;;;;;;;44.00;28.30;;;;;;;0.86;75.58;100221.96;213446;1276;141697;-64
2022/04/12 01:25:34;;;;;;;43.20;29.40;;;;;;;0.61;75.26;100223.59;213336;1276;140515;-62
2022/04/12 01:30:37;;;;;;;55.10;30.30;;;;;;;0.42;75.80;100219.77;213236;1277;140843;-63
2022/04/12 01:35:40;;;;;;;57.70;34.60;;;;;;;0.35;75.99;100221.64;213424;1276;140518;-62
2022/04/12 01:40:43;;;;;;;53.70;30.10;;;;;;;0.36;76.21;100223.90;213747;1276;142306;-61
2022/04/12 01:45:46;;;;;;;53.70;32.00;;;;;;;0.34;76.00;100220.78;213673;1276;141754;-61
2022/04/12 01:50:48;;;;;;;49.10;32.40;;;;;;;0.25;75.97;100223.61;213317;1276;141361;-61
2022/04/12 01:55:51;;;;;;;57.10;33.10;;;;;;;0.17;75.90;100224.27;214098;1276;140373;-62
2022/04/12 02:00:53;;;;;;;62.30;34.50;;;;;;;0.09;76.12;100231.34;213593;1276;140523;-64
2022/04/12 02:05:56;;;;;;;51.70;31.80;;;;;;;0.05;76.04;100234.61;214878;1276;141897;-64
2022/04/12 02:11:00;;;;;;;47.40;28.60;;;;;;;0.03;76.13;100235.98;214872;1276;141817;-65
2022/04/12 02:16:03;;;;;;;47.60;33.00;;;;;;;0.06;76.22;100239.56;214929;1276;161355;-64
2022/04/12 02:21:05;;;;;;;46.20;31.80;;;;;;;0.10;76.40;100238.65;214748;1276;234494;-65
2022/04/12 02:26:07;;;;;;;49.10;30.20;;;;;;;0.14;76.34;100239.08;215303;1276;141100;-64
2022/04/12 02:31:09;;;;;;;47.70;33.60;;;;;;;0.06;76.08;100245.17;215730;1276;140912;-67
2022/04/12 02:36:12;;;;;;;53.80;31.90;;;;;;;0.03;76.33;100254.50;215430;1276;141807;-64
2022/04/12 02:41:17;;;;;;;53.40;34.70;;;;;;;-0.07;76.08;100252.09;213583;1276;141947;-63
2022/04/12 02:46:21;;;;;;;64.20;34.70;;;;;;;-0.10;76.34;100261.10;214254;1276;141506;-64
2022/04/12 02:51:23;;;;;;;64.50;37.80;;;;;;;-0.09;76.46;100266.58;213883;1276;142065;-64
2022/04/12 02:56:26;;;;;;;63.00;34.20;;;;;;;-0.09;76.62;100264.09;214168;1276;140196;-63
2022/04/12 03:01:29;;;;;;;54.70;30.50;;;;;;;-0.13;76.40;100268.71;213736;1274;142225;-62
2022/04/12 03:06:32;;;;;;;56.60;32.80;;;;;;;-0.19;76.36;100266.73;215028;1276;142874;-62
2022/04/12 03:11:36;;;;;;;53.70;28.60;;;;;;;-0.23;76.48;100262.19;213194;1276;141268;-63
2022/04/12 03:16:38;;;;;;;52.60;29.70;;;;;;;-0.19;76.86;100266.18;213305;1276;143210;-62
2022/04/12 03:21:42;;;;;;;47.60;27.70;;;;;;;-0.14;76.95;100270.60;214207;1276;141050;-62
2022/04/12 03:26:44;;;;;;;56.70;31.40;;;;;;;-0.23;77.02;100266.56;213751;1276;141456;-61
2022/04/12 03:31:48;;;;;;;52.60;32.00;;;;;;;-0.28;77.24;100266.25;213151;1276;141832;-61
2022/04/12 03:36:51;;;;;;;56.30;31.50;;;;;;;-0.35;76.99;100263.02;214010;1277;142352;-60
2022/04/12 03:41:54;;;;;;;49.80;28.20;;;;;;;-0.40;77.06;100265.44;213259;1276;141828;-61
2022/04/12 03:46:57;;;;;;;48.40;29.90;;;;;;;-0.40;77.08;100266.70;213973;1275;143272;-61
2022/04/12 03:52:00;;;;;;;64.50;37.60;;;;;;;-0.47;76.92;100272.79;213831;1275;151465;-62
2022/04/12 03:57:02;;;;;;;68.60;36.20;;;;;;;-0.48;77.29;100278.70;214111;1275;140566;-63
2022/04/12 04:02:05;;;;;;;62.90;35.70;;;;;;;-0.53;77.06;100283.70;213037;1275;140188;-63
2022/04/12 04:07:08;;;;;;;67.80;36.80;;;;;;;-0.56;77.04;100286.02;213409;1276;140845;-62
2022/04/12 04:12:11;;;;;;;69.80;41.10;;;;;;;-0.49;77.23;100291.82;214066;1276;141446;-62
2022/04/12 04:17:14;;;;;;;70.00;40.30;;;;;;;-0.38;77.20;100294.95;213432;1276;139917;-62
2022/04/12 04:22:16;;;;;;;55.30;36.10;;;;;;;-0.28;77.53;100298.45;215734;1276;140579;-62
2022/04/12 04:27:18;;;;;;;64.30;40.40;;;;;;;-0.13;77.53;100307.48;215987;1276;139957;-65
2022/04/12 04:32:22;;;;;;;67.60;38.20;;;;;;;0.07;77.21;100316.55;215217;1274;141117;-63
2022/04/12 04:37:26;;;;;;;74.20;39.60;;;;;;;0.18;77.09;100308.92;215636;1274;140506;-64
2022/04/12 04:42:29;;;;;;;61.80;37.50;;;;;;;0.29;77.04;100316.42;214817;1275;140572;-63
2022/04/12 04:47:34;;;;;;;66.70;41.00;;;;;;;0.35;76.72;100316.11;215855;1274;141383;-66
2022/04/12 04:52:36;;;;;;;65.20;43.30;;;;;;;0.39;77.00;100318.17;213243;1276;140632;-63
2022/04/12 04:57:42;;;;;;;72.70;43.40;;;;;;;0.47;76.82;100320.22;215096;1274;139820;-62
2022/04/12 05:02:50;;;;;;;74.50;45.00;;;;;;;0.45;76.97;100326.98;214411;1276;140744;-61
2022/04/12 05:07:55;;;;;;;76.50;45.10;;;;;;;0.56;76.69;100330.64;214005;1276;140379;-64
2022/04/12 05:13:00;;;;;;;76.70;46.40;;;;;;;0.66;76.83;100335.34;213916;1276;141803;-62
2022/04/12 05:18:04;;;;;;;82.90;49.30;;;;;;;0.98;77.26;100343.07;214626;1274;140057;-63
2022/04/12 05:23:08;;;;;;;60.50;37.70;;;;;;;1.32;77.26;100349.88;214086;1276;139934;-63
2022/04/12 05:28:12;;;;;;;88.40;51.00;;;;;;;1.51;77.06;100355.70;213205;1276;140432;-63
2022/04/12 05:33:16;;;;;;;99.00;53.10;;;;;;;1.72;77.08;100357.88;213604;1276;143220;-63
2022/04/12 05:38:20;;;;;;;73.10;47.50;;;;;;;1.87;77.11;100362.42;213075;1276;141421;-64
2022/04/12 05:43:28;;;;;;;;;;;;;;;2.02;77.39;100365.45;213888;1276;140768;-65
2022/04/12 05:48:32;;;;;;;94.40;53.30;;;;;;;2.32;77.83;100364.20;214712;1276;137850;-64
2022/04/12 05:53:37;;;;;;;85.30;51.00;;;;;;;2.57;77.79;100377.41;214284;1276;140818;-63
2022/04/12 05:58:40;;;;;;;75.80;48.90;;;;;;;2.83;77.89;100377.67;214762;1275;142387;-63
2022/04/12 06:03:44;;;;;;;78.10;52.70;;;;;;;3.12;77.83;100375.70;213855;1275;141421;-63
2022/04/12 06:08:47;;;;;;;74.90;50.00;;;;;;;3.33;77.91;100377.03;215601;1275;140359;-65
2022/04/12 06:13:50;;;;;;;76.80;48.10;;;;;;;3.54;78.30;100383.91;214230;1274;140485;-64
2022/04/12 06:18:53;;;;;;;90.20;53.70;;;;;;;3.81;78.32;100384.23;213421;1276;141267;-64
2022/04/12 06:23:56;;;;;;;60.60;40.20;;;;;;;4.07;78.32;100387.58;216029;1276;142630;-68
2022/04/12 06:28:59;;;;;;;51.20;33.70;;;;;;;4.34;78.24;100390.02;215839;1276;141397;-66
2022/04/12 06:34:02;;;;;;;23.70;19.10;;;;;;;4.61;78.05;100389.81;215839;1276;140522;-66
2022/04/12 06:39:05;;;;;;;19.80;13.70;;;;;;;4.87;77.61;100395.39;213900;1277;140909;-64
2022/04/12 06:44:08;;;;;;;21.90;16.20;;;;;;;5.13;76.98;100393.20;213621;1276;140592;-64
2022/04/12 06:49:12;;;;;;;16.60;13.70;;;;;;;5.47;76.54;100394.55;214882;1276;141703;-65
2022/04/12 06:54:15;;;;;;;17.30;11.30;;;;;;;6.05;75.77;100389.66;214174;1276;141271;-64
2022/04/12 06:59:19;;;;;;;14.00;10.90;;;;;;;6.59;74.76;100391.10;213733;1276;141235;-64
2022/04/12 07:04:22;;;;;;;12.80;7.70;;;;;;;6.94;74.13;100393.58;213633;1276;141271;-64
2022/04/12 07:09:29;;;;;;;7.70;5.60;;;;;;;7.10;73.15;100398.19;214036;1276;141034;-64
2022/04/12 07:14:32;;;;;;;9.20;5.80;;;;;;;7.58;72.16;100398.92;213456;1276;140944;-62
2022/04/12 07:19:35;;;;;;;8.70;4.40;;;;;;;8.84;70.92;100408.21;213947;1276;140891;-63
2022/04/12 07:24:38;;;;;;;5.60;4.10;;;;;;;10.35;70.23;100405.65;214013;1276;140995;-65
2022/04/12 07:29:42;;;;;;;10.50;6.70;;;;;;;11.29;68.47;100412.11;213575;1274;140907;-64
2022/04/12 07:34:46;;;;;;;6.00;4.20;;;;;;;11.99;67.16;100408.39;213309;1275;141544;-67
2022/04/12 07:39:49;;;;;;;6.50;4.40;;;;;;;12.30;65.08;100407.48;213284;1276;142632;-72
2022/04/12 07:44:52;;;;;;;5.10;4.30;;;;;;;12.44;64.11;100407.10;213472;1276;142112;-69
2022/04/12 07:49:54;;;;;;;4.70;4.00;;;;;;;12.52;62.76;100400.48;213628;1276;140622;-66
2022/04/12 07:54:57;;;;;;;5.40;3.50;;;;;;;12.59;61.89;100404.91;213069;1276;141088;-68
2022/04/12 08:00:01;;;;;;;8.20;4.90;;;;;;;12.70;60.59;100408.02;213678;1276;141613;-67
2022/04/12 08:05:05;;;;;;;7.60;4.60;;;;;;;12.80;59.96;100411.30;213322;1276;141421;-69
2022/04/12 08:10:08;;;;;;;4.50;3.90;;;;;;;13.07;60.70;100414.10;214399;1276;231066;-68
2022/04/12 08:15:13;;;;;;;4.90;3.60;;;;;;;13.44;59.87;100410.25;213614;1276;140457;-70
2022/04/12 08:20:16;;;;;;;5.10;2.60;;;;;;;13.60;58.29;100415.52;213992;1276;140569;-66
2022/04/12 08:25:20;;;;;;;5.40;2.50;;;;;;;13.61;56.93;100412.41;215306;1276;141239;-70
2022/04/12 08:30:23;;;;;;;11.70;3.40;;;;;;;13.68;56.15;100417.45;213391;1276;140723;-69
2022/04/12 08:35:25;;;;;;;3.00;2.70;;;;;;;13.63;54.70;100417.77;215328;1276;141255;-68
2022/04/12 08:40:29;;;;;;;4.10;2.70;;;;;;;13.30;53.66;100424.70;215052;1276;141032;-68
2022/04/12 08:45:35;;;;;;;7.10;3.40;;;;;;;13.19;52.99;100424.13;213896;1276;140209;-67
2022/04/12 08:50:41;;;;;;;2.30;2.10;;;;;;;13.11;52.28;100431.13;215639;1276;141136;-67
2022/04/12 08:55:43;;;;;;;2.60;2.40;;;;;;;13.14;52.14;100429.48;212850;1276;141587;-67
2022/04/12 09:00:47;;;;;;;3.80;2.60;;;;;;;13.11;51.73;100438.30;214064;1276;141569;-66
2022/04/12 09:05:52;;;;;;;4.10;3.20;;;;;;;13.22;52.13;100436.71;214341;1276;141390;-68
2022/04/12 09:11:00;;;;;;;5.20;3.60;;;;;;;13.44;52.02;100436.03;214562;1276;141696;-68
2022/04/12 09:16:08;;;;;;;3.60;3.20;;;;;;;13.75;51.67;100431.88;213341;1276;141665;-70
2022/04/12 09:21:23;;;;;;;4.70;4.30;;;;;;;13.53;50.82;100435.23;213127;1276;140982;-66
2022/04/12 09:26:28;;;;;;;3.40;2.90;;;;;;;13.35;50.75;100429.35;213895;1276;140614;-69
2022/04/12 09:31:33;;;;;;;4.20;3.40;;;;;;;12.83;49.72;100433.94;213087;1276;141235;-72
2022/04/12 09:36:36;;;;;;;5.10;4.10;;;;;;;12.59;50.11;100425.36;214560;1276;141257;-69
2022/04/12 09:41:40;;;;;;;3.50;3.10;;;;;;;12.89;50.23;100424.14;213566;1276;139391;-68
2022/04/12 09:46:44;;;;;;;2.20;2.10;;;;;;;13.14;49.72;100425.98;213728;1276;140395;-68
2022/04/12 09:51:49;;;;;;;3.60;1.90;;;;;;;13.33;49.10;100426.95;214172;1276;139449;-68
2022/04/12 09:56:57;;;;;;;3.40;3.20;;;;;;;13.58;48.93;100420.06;213422;1276;139723;-67
2022/04/12 10:02:19;;;;;;;;;;;;;;;13.89;48.28;100413.48;213558;1278;141882;-65
2022/04/12 10:07:25;;;;;;;2.90;2.50;;;;;;;13.90;47.77;100409.06;213787;1276;127435;-66
2022/04/12 10:12:29;;;;;;;3.00;2.60;;;;;;;14.23;47.71;100410.76;212676;1277;141602;-66
2022/04/12 10:17:34;;;;;;;3.90;3.00;;;;;;;14.54;47.40;100410.83;214494;1278;141860;-65
2022/04/12 10:22:38;;;;;;;7.50;2.80;;;;;;;14.83;47.24;100406.77;214819;1279;140513;-67
2022/04/12 10:27:43;;;;;;;2.50;2.00;;;;;;;14.95;46.71;100406.79;213380;1276;144338;-66
2022/04/12 10:33:16;;;;;;;3.40;2.50;;;;;;;15.07;46.33;100404.89;215050;1276;210601;-66
2022/04/12 10:38:20;;;;;;;3.60;2.30;;;;;;;15.17;45.81;100402.23;214985;1278;140484;-67
2022/04/12 10:43:33;;;;;;;1.70;1.60;;;;;;;14.99;44.69;100398.35;215655;1277;141261;-66
2022/04/12 10:48:36;;;;;;;2.10;1.50;;;;;;;14.93;43.96;100398.86;214135;1278;968793;-67
2022/04/12 10:53:39;;;;;;;4.20;2.40;;;;;;;14.70;43.17;100393.27;214671;1278;141283;-67
2022/04/12 10:58:43;;;;;;;3.10;2.80;;;;;;;14.64;43.76;100395.96;214571;1277;139572;-65
2022/04/12 11:03:54;;;;;;;3.10;2.30;;;;;;;14.47;43.49;100398.43;214598;1278;140638;-66
2022/04/12 11:09:08;;;;;;;9.10;2.70;;;;;;;14.38;42.65;100395.00;214108;1277;140051;-64
2022/04/12 11:14:24;;;;;;;1.70;1.60;;;;;;;14.26;42.76;100394.69;212932;1278;142683;-67
2022/04/12 11:19:39;;;;;;;2.40;2.00;;;;;;;14.29;42.58;100395.05;213866;1278;140909;-64
2022/04/12 11:24:43;;;;;;;2.10;1.90;;;;;;;14.38;42.28;100397.83;213840;1278;141126;-65
2022/04/12 11:29:57;;;;;;;3.20;1.90;;;;;;;14.33;42.09;100397.80;213560;1277;140895;-66
2022/04/12 11:35:02;;;;;;;4.10;2.30;;;;;;;14.35;42.18;100397.48;213441;1276;140480;-65
2022/04/12 11:40:05;;;;;;;4.30;2.20;;;;;;;14.33;41.28;100397.80;213289;1277;140195;-66
2022/04/12 11:45:08;;;;;;;2.60;2.40;;;;;;;14.28;41.43;100399.91;213564;1277;140226;-65
2022/04/12 11:50:16;;;;;;;1.80;1.60;;;;;;;14.34;41.44;100397.34;213224;1277;140326;-66
2022/04/12 11:55:19;;;;;;;2.60;2.40;;;;;;;14.38;41.12;100387.20;212888;1277;142010;-66
2022/04/12 12:00:25;;;;;;;3.40;2.10;;;;;;;14.24;40.58;100386.29;214146;1278;140439;-66
2022/04/12 12:05:27;;;;;;;4.40;2.10;;;;;;;14.07;40.72;100384.44;213503;1277;140040;-66
2022/04/12 12:10:31;;;;;;;3.70;3.00;;;;;;;13.96;40.38;100384.08;214129;1277;139424;-67
2022/04/12 12:15:35;;;;;;;2.80;2.00;;;;;;;13.97;40.37;100376.17;214785;1278;139834;-68
2022/04/12 12:20:40;;;;;;;4.50;2.70;;;;;;;13.99;40.35;100369.49;214200;1277;142507;-67
2022/04/12 12:25:50;;;;;;;2.90;2.60;;;;;;;14.10;40.61;100366.09;212768;1278;140225;-67
2022/04/12 12:30:59;;;;;;;1.90;1.80;;;;;;;14.15;40.19;100359.11;215653;1277;140262;-68
2022/04/12 12:36:25;;;;;;;;;;;;;;;14.12;39.86;100347.14;215832;1277;139443;-68
2022/04/12 12:41:33;;;;;;;2.50;2.10;;;;;;;14.09;40.01;100344.45;216273;1277;127917;-67
2022/04/12 12:46:38;;;;;;;2.90;1.90;;;;;;;14.03;39.52;100349.95;215373;1278;140107;-67
2022/04/12 12:51:42;;;;;;;2.30;2.10;;;;;;;14.10;39.52;100345.92;215471;1277;140098;-66
2022/04/12 12:56:47;;;;;;;3.70;2.10;;;;;;;14.18;39.92;100347.84;214337;1278;140616;-67
2022/04/12 13:01:53;;;;;;;2.80;2.60;;;;;;;14.27;39.82;100346.17;213371;1277;140364;-65
2022/04/12 13:07:03;;;;;;;2.30;1.90;;;;;;;14.18;39.52;100338.98;214022;1277;139814;-66
2022/04/12 13:12:08;;;;;;;1.60;1.50;;;;;;;14.00;39.45;100341.75;213982;1277;141663;-66
2022/04/12 13:17:12;;;;;;;3.20;2.80;;;;;;;13.90;39.18;100340.60;213421;1277;140445;-66
2022/04/12 13:22:15;;;;;;;3.20;2.20;;;;;;;13.93;39.17;100344.23;213901;1277;140347;-64
2022/04/12 13:27:19;;;;;;;1.80;1.70;;;;;;;14.02;39.10;100343.45;214078;1279;139836;-65
2022/04/12 13:32:22;;;;;;;4.30;2.40;;;;;;;14.00;38.72;100349.35;213787;1277;139685;-65
2022/04/12 13:37:24;;;;;;;4.60;2.60;;;;;;;13.82;38.37;100341.59;213263;1277;139516;-67
2022/04/12 13:42:26;;;;;;;2.10;1.90;;;;;;;13.63;37.91;100345.97;213916;1277;141811;-67
2022/04/12 13:47:29;;;;;;;3.60;2.60;;;;;;;13.44;37.97;100341.48;213168;1277;142141;-67
2022/04/12 13:52:32;;;;;;;1.80;1.70;;;;;;;13.25;37.84;100339.54;213230;1277;140953;-67
2022/04/12 13:57:37;;;;;;;2.30;2.00;;;;;;;13.13;37.68;100343.42;213991;1278;141743;-66
2022/04/12 14:02:41;;;;;;;2.90;2.40;;;;;;;13.25;37.99;100346.35;213159;1277;141617;-65
2022/04/12 14:07:46;;;;;;;2.70;2.50;;;;;;;13.33;37.88;100345.84;213138;1277;141578;-67
2022/04/12 14:12:48;;;;;;;8.70;2.70;;;;;;;13.26;38.15;100342.35;214443;1277;140442;-67
2022/04/12 14:17:51;;;;;;;2.50;2.30;;;;;;;13.26;37.96;100341.07;213578;1278;141603;-66
2022/04/12 14:23:12;;;;;;;2.80;2.60;;;;;;;13.25;38.24;100340.19;213934;1277;221975;-67
2022/04/12 14:28:23;;;;;;;2.80;2.50;;;;;;;13.25;38.00;100340.02;213771;1279;143357;-68
2022/04/12 14:33:27;;;;;;;3.90;2.80;;;;;;;13.27;37.90;100337.50;213569;1279;142669;-68
2022/04/12 14:38:30;;;;;;;2.00;1.90;;;;;;;13.33;37.79;100333.61;213038;1277;141105;-67
2022/04/12 14:43:35;;;;;;;2.50;2.00;;;;;;;13.28;37.73;100333.83;214603;1277;140575;-66
2022/04/12 14:48:39;;;;;;;2.60;1.90;;;;;;;13.23;37.92;100330.14;214721;1277;140336;-67
2022/04/12 14:53:43;;;;;;;1.70;1.60;;;;;;;13.23;38.38;100332.39;215621;1277;140651;-67
2022/04/12 14:58:46;;;;;;;3.10;2.70;;;;;;;13.12;38.17;100336.48;215040;1277;140048;-67
2022/04/12 15:03:51;;;;;;;4.60;3.50;;;;;;;12.99;37.98;100343.60;215476;1277;139824;-66
2022/04/12 15:08:54;;;;;;;6.20;3.40;;;;;;;12.88;38.37;100343.35;212886;1278;141315;-66
2022/04/12 15:14:00;;;;;;;4.10;3.20;;;;;;;12.85;38.25;100341.64;214344;1278;140224;-66
2022/04/12 15:19:04;;;;;;;2.50;2.10;;;;;;;12.76;38.50;100339.75;214457;1277;140758;-66
2022/04/12 15:24:10;;;;;;;5.60;3.70;;;;;;;12.66;38.57;100340.73;213660;1277;140531;-66
2022/04/12 15:29:13;;;;;;;9.00;3.60;;;;;;;12.57;38.82;100332.86;213708;1277;139942;-65
2022/04/12 15:34:17;;;;;;;8.00;3.40;;;;;;;12.57;38.86;100331.91;213159;1277;140653;-65
2022/04/12 15:39:23;;;;;;;3.40;2.70;;;;;;;12.49;38.61;100332.98;213173;1277;140537;-68
2022/04/12 15:44:27;;;;;;;3.80;3.40;;;;;;;12.29;38.64;100338.53;213597;1277;139543;-67
2022/04/12 15:49:31;;;;;;;4.00;3.00;;;;;;;12.06;39.03;100336.65;213391;1277;140893;-68
2022/04/12 15:54:33;;;;;;;5.70;4.30;;;;;;;11.88;39.10;100336.14;212836;1277;139715;-67
2022/04/12 15:59:35;;;;;;;4.00;3.40;;;;;;;11.76;39.21;100338.02;213610;1277;139445;-67
2022/04/12 16:04:38;;;;;;;5.90;4.50;;;;;;;11.65;39.41;100337.80;213093;1277;141647;-67
2022/04/12 16:09:44;;;;;;;5.30;2.70;;;;;;;11.52;39.56;100342.70;213896;1277;139924;-65
2022/04/12 16:14:50;;;;;;;3.20;2.90;;;;;;;11.41;39.54;100348.55;213944;1276;140418;-66
2022/04/12 16:19:53;;;;;;;4.40;3.70;;;;;;;11.28;39.59;100349.34;214278;1277;140182;-67
2022/04/12 16:24:56;;;;;;;4.00;3.40;;;;;;;11.15;39.71;100351.38;212811;1280;141354;-67
2022/04/12 16:29:58;;;;;;;6.90;4.00;;;;;;;11.04;39.84;100362.00;214221;1277;139982;-66
2022/04/12 16:35:01;;;;;;;5.20;3.80;;;;;;;10.90;40.07;100366.03;213800;1277;139524;-66
2022/04/12 16:40:04;;;;;;;5.60;4.20;;;;;;;10.74;40.21;100370.08;214012;1277;139992;-67
2022/04/12 16:45:12;;;;;;;4.00;3.50;;;;;;;10.63;40.47;100381.10;215269;1277;140219;-68
2022/04/12 16:50:16;;;;;;;7.10;3.30;;;;;;;10.51;40.89;100382.36;215153;1277;140743;-71
2022/04/12 16:55:18;;;;;;;5.30;3.00;;;;;;;10.42;40.95;100385.91;215531;1277;141470;-68
2022/04/12 17:00:22;;;;;;;3.30;3.00;;;;;;;10.31;40.98;100390.52;215683;1277;140583;-69
2022/04/12 17:05:24;;;;;;;8.50;4.30;;;;;;;10.19;41.26;100389.02;215028;1279;140069;-68
2022/04/12 17:10:26;;;;;;;8.60;5.20;;;;;;;10.10;41.90;100389.86;214774;1277;140203;-67
2022/04/12 17:15:29;;;;;;;9.60;4.60;;;;;;;9.99;42.46;100391.13;213440;1277;142566;-65
2022/04/12 17:20:32;;;;;;;8.90;6.90;;;;;;;9.81;42.82;100395.73;213786;1277;140666;-66
2022/04/12 17:25:35;;;;;;;6.50;5.60;;;;;;;9.61;43.08;100394.66;214425;1277;141242;-70
2022/04/12 17:30:39;;;;;;;9.10;6.00;;;;;;;9.44;43.67;100398.66;214644;1277;140847;-72
2022/04/12 17:35:41;;;;;;;6.10;5.40;;;;;;;9.27;44.15;100405.97;214293;1277;143046;-67
2022/04/12 17:40:44;;;;;;;6.00;4.80;;;;;;;9.05;44.41;100414.66;213545;1277;140317;-67
2022/04/12 17:45:46;;;;;;;14.40;7.00;;;;;;;8.84;45.55;100416.38;213531;1277;141305;-66
2022/04/12 17:50:53;;;;;;;8.90;6.30;;;;;;;8.66;45.99;100414.46;213000;1277;141128;-68
2022/04/12 17:55:56;;;;;;;9.90;6.90;;;;;;;8.45;46.91;100416.77;213281;1277;140163;-65
2022/04/12 18:01:00;;;;;;;12.60;7.90;;;;;;;8.23;47.59;100422.36;212533;1277;140408;-68
2022/04/12 18:06:06;;;;;;;18.40;9.80;;;;;;;8.02;48.15;100429.14;213029;1277;141092;-66
2022/04/12 18:11:13;;;;;;;13.60;9.60;;;;;;;7.84;48.43;100435.48;212629;1277;141073;-65
2022/04/12 18:16:17;;;;;;;18.50;9.50;;;;;;;7.66;49.35;100438.30;213050;1277;141745;-66
2022/04/12 18:21:20;;;;;;;24.10;11.90;;;;;;;7.47;49.94;100434.27;213559;1277;141298;-66
2022/04/12 18:26:23;;;;;;;17.10;10.90;;;;;;;7.30;49.97;100433.09;213225;1277;140915;-66
2022/04/12 18:31:28;;;;;;;18.80;12.50;;;;;;;7.13;50.78;100438.91;212719;1277;159212;-66
2022/04/12 18:36:32;;;;;;;24.70;12.80;;;;;;;6.97;51.14;100441.35;214484;1277;140740;-69
2022/04/12 18:41:35;;;;;;;22.50;12.20;;;;;;;6.82;51.45;100443.30;213246;1277;141763;-66
2022/04/12 18:46:38;;;;;;;16.80;10.30;;;;;;;6.62;51.94;100440.52;212790;1279;152996;-66
2022/04/12 18:51:41;;;;;;;22.30;13.40;;;;;;;6.38;52.36;100440.44;214361;1277;141448;-66
2022/04/12 18:56:52;;;;;;;21.90;12.20;;;;;;;6.23;53.05;100444.29;213600;1277;140707;-66
2022/04/12 19:01:55;;;;;;;21.60;11.60;;;;;;;6.07;52.84;100445.06;215875;1277;141164;-67
2022/04/12 19:06:58;;;;;;;22.60;13.30;;;;;;;5.81;53.38;100441.17;215629;1277;139933;-67
2022/04/12 19:12:02;;;;;;;31.10;14.80;;;;;;;5.66;53.58;100442.05;214371;1277;140627;-68
2022/04/12 19:17:05;;;;;;;27.40;13.30;;;;;;;5.54;54.49;100443.90;215434;1277;140189;-66
2022/04/12 19:22:08;;;;;;;28.60;14.90;;;;;;;5.34;54.77;100440.61;215330;1277;142763;-67
2022/04/12 19:27:13;;;;;;;27.30;14.80;;;;;;;5.24;55.21;100445.09;214910;1277;140268;-66
2022/04/12 19:32:19;;;;;;;25.60;17.30;;;;;;;5.18;55.78;100444.05;214467;1277;139590;-67
2022/04/12 19:37:27;;;;;;;26.70;15.60;;;;;;;5.15;56.43;100448.60;214593;1277;139867;-68
2022/04/12 19:42:31;;;;;;;30.30;13.80;;;;;;;4.98;56.68;100449.86;213288;1277;142240;-63
2022/04/12 19:47:35;;;;;;;26.50;13.80;;;;;;;4.74;56.97;100448.71;213067;1277;142018;-63
2022/04/12 19:52:43;;;;;;;35.30;14.20;;;;;;;4.56;57.26;100448.31;213762;1277;140522;-65
2022/04/12 19:57:46;;;;;;;28.70;11.50;;;;;;;4.32;57.24;100447.63;213062;1277;140491;-65
2022/04/12 20:02:49;;;;;;;25.60;14.00;;;;;;;4.06;57.53;100452.75;213314;1277;141638;-64
2022/04/12 20:07:55;;;;;;;25.00;14.10;;;;;;;3.97;58.09;100461.23;212688;1279;141418;-64
2022/04/12 20:12:58;;;;;;;31.40;18.40;;;;;;;3.88;58.28;100463.98;212886;1279;141948;-63
2022/04/12 20:18:02;;;;;;;23.10;13.70;;;;;;;3.74;58.80;100468.70;212837;1279;141016;-62
2022/04/12 20:23:05;;;;;;;28.60;17.90;;;;;;;3.50;59.48;100468.94;213842;1277;141310;-64
2022/04/12 20:28:09;;;;;;;35.10;20.10;;;;;;;3.32;59.37;100473.77;214330;1277;142376;-63
2022/04/12 20:33:12;;;;;;;26.40;17.50;;;;;;;3.29;59.84;100471.83;212672;1279;143313;-63
2022/04/12 20:38:15;;;;;;;32.60;18.50;;;;;;;3.23;60.22;100475.15;213843;1279;140831;-62
2022/04/12 20:43:19;;;;;;;44.70;22.30;;;;;;;3.11;60.50;100473.64;213513;1275;142428;-63
2022/04/12 20:48:22;;;;;;;66.30;29.30;;;;;;;3.03;60.27;100474.49;212827;1277;142309;-63
2022/04/12 20:53:28;;;;;;;58.20;29.10;;;;;;;3.02;61.08;100475.30;215169;1277;141177;-65
2022/04/12 20:58:33;;;;;;;53.20;28.30;;;;;;;3.03;61.44;100474.17;215317;1277;141147;-66
2022/04/12 21:03:37;;;;;;;53.20;28.60;;;;;;;2.93;61.39;100475.27;215613;1278;140883;-66
2022/04/12 21:08:41;;;;;;;61.90;30.50;;;;;;;2.89;61.90;100474.14;214239;1278;141811;-63
2022/04/12 21:13:47;;;;;;;65.40;34.90;;;;;;;2.85;62.05;100472.77;213854;1277;142710;-63
2022/04/12 21:18:52;;;;;;;51.50;31.20;;;;;;;2.84;61.70;100475.17;213621;1277;140970;-64
2022/04/12 21:23:55;;;;;;;58.00;30.50;;;;;;;2.85;62.10;100471.38;215110;1277;140775;-64
2022/04/12 21:28:58;;;;;;;45.70;25.20;;;;;;;2.84;62.44;100473.65;215595;1277;140352;-67
2022/04/12 21:34:01;;;;;;;49.00;24.70;;;;;;;2.74;62.14;100474.48;212982;1277;140530;-64
2022/04/12 21:39:05;;;;;;;42.80;23.40;;;;;;;2.57;61.90;100475.67;214457;1277;139938;-63
2022/04/12 21:44:08;;;;;;;44.90;28.40;;;;;;;2.38;62.45;100475.16;214841;1277;139864;-67
2022/04/12 21:49:11;;;;;;;33.80;18.00;;;;;;;2.31;62.85;100473.91;213040;1277;141208;-64
2022/04/12 21:54:15;;;;;;;36.80;22.10;;;;;;;2.12;63.14;100471.64;214215;1277;140131;-64
2022/04/12 21:59:21;;;;;;;44.30;24.40;;;;;;;1.97;63.57;100473.16;213558;1277;140213;-64
2022/04/12 22:04:25;;;;;;;54.60;31.00;;;;;;;1.91;63.91;100470.77;214229;1277;140308;-64
2022/04/12 22:09:28;;;;;;;62.70;34.30;;;;;;;1.90;63.80;100475.47;214113;1277;140538;-64
2022/04/12 22:14:31;;;;;;;41.00;24.30;;;;;;;1.87;63.75;100472.45;214610;1277;141199;-64
2022/04/12 22:19:34;;;;;;;43.20;26.30;;;;;;;1.75;64.27;100468.48;213854;1277;163859;-63
2022/04/12 22:24:36;;;;;;;45.60;29.00;;;;;;;1.61;64.20;100475.05;212924;1277;142665;-63
2022/04/12 22:29:39;;;;;;;46.10;27.10;;;;;;;1.46;64.49;100474.88;212902;1277;141919;-64
2022/04/12 22:34:42;;;;;;;45.60;27.20;;;;;;;1.32;64.60;100474.34;212996;1275;141617;-62
2022/04/12 22:39:44;;;;;;;55.50;29.80;;;;;;;1.21;64.89;100480.73;212703;1277;141325;-63
2022/04/12 22:44:48;;;;;;;47.50;28.00;;;;;;;1.19;65.22;100474.33;213212;1277;142816;-63
2022/04/12 22:49:51;;;;;;;44.70;27.30;;;;;;;1.15;65.51;100476.46;213120;1279;681274;-67
2022/04/12 22:54:53;;;;;;;53.10;29.10;;;;;;;1.13;65.80;100482.48;213449;1277;143733;-64
2022/04/12 22:59:56;;;;;;;45.10;25.20;;;;;;;1.06;65.72;100480.17;212801;1277;141295;-62